sensor_id;sensor_type;location;lat;lon;timestamp;pressure;altitude;pressure_sealevel;temperature;humidity
71772;BME280;59606;52.138;5.424;2023-03-22T00:02:04;101051.06;;;9.15;92.38
71772;BME280;59606;52.138;5.424;2023-03-22T00:04:30;101049.34;;;9.14;92.64
71772;BME280;59606;52.138;5.424;2023-03-22T00:06:57;101047.72;;;9.12;92.88
71772;BME280;59606;52.138;5.424;2023-03-22T00:09:24;101050.56;;;9.07;92.46
71772;BME280;59606;52.138;5.424;2023-03-22T00:11:50;101047.94;;;9.07;93.10
71772;BME280;59606;52.138;5.424;2023-03-22T00:14:17;101040.28;;;9.04;92.95
71772;BME280;59606;52.138;5.424;2023-03-22T00:16:44;101031.66;;;9.04;92.75
71772;BME280;59606;52.138;5.424;2023-03-22T00:19:14;101039.59;;;9.01;93.30
71772;BME280;59606;52.138;5.424;2023-03-22T00:21:43;101029.28;;;8.99;93.27
71772;BME280;59606;52.138;5.424;2023-03-22T00:24:09;101031.16;;;8.95;93.41
71772;BME280;59606;52.138;5.424;2023-03-22T00:26:36;101021.66;;;8.94;93.92
71772;BME280;59606;52.138;5.424;2023-03-22T00:29:03;101023.50;;;8.92;93.43
71772;BME280;59606;52.138;5.424;2023-03-22T00:31:30;101017.44;;;8.92;93.57
71772;BME280;59606;52.138;5.424;2023-03-22T00:33:57;101020.03;;;8.92;94.04
71772;BME280;59606;52.138;5.424;2023-03-22T00:36:23;101013.16;;;8.91;93.79
71772;BME280;59606;52.138;5.424;2023-03-22T00:38:50;101018.44;;;8.89;93.81
71772;BME280;59606;52.138;5.424;2023-03-22T00:41:20;101015.06;;;8.87;94.12
71772;BME280;59606;52.138;5.424;2023-03-22T00:43:48;101015.06;;;8.87;94.35
71772;BME280;59606;52.138;5.424;2023-03-22T00:46:17;101013.44;;;8.85;93.79
71772;BME280;59606;52.138;5.424;2023-03-22T00:48:45;101011.84;;;8.82;94.30
71772;BME280;59606;52.138;5.424;2023-03-22T00:51:12;101004.94;;;8.81;94.10
71772;BME280;59606;52.138;5.424;2023-03-22T00:53:40;100999.88;;;8.78;93.77
71772;BME280;59606;52.138;5.424;2023-03-22T00:56:12;100999.97;;;8.77;94.04
71772;BME280;59606;52.138;5.424;2023-03-22T00:58:40;101004.31;;;8.76;93.93
71772;BME280;59606;52.138;5.424;2023-03-22T01:01:07;100994.81;;;8.75;94.17
71772;BME280;59606;52.138;5.424;2023-03-22T01:03:34;100993.97;;;8.74;94.29
71772;BME280;59606;52.138;5.424;2023-03-22T01:06:01;100988.78;;;8.74;94.38
71772;BME280;59606;52.138;5.424;2023-03-22T01:08:28;100984.44;;;8.75;94.28
71772;BME280;59606;52.138;5.424;2023-03-22T01:10:59;100976.63;;;8.75;93.98
71772;BME280;59606;52.138;5.424;2023-03-22T01:13:26;100967.97;;;8.76;94.24
71772;BME280;59606;52.138;5.424;2023-03-22T01:15:54;100973.16;;;8.76;94.68
71772;BME280;59606;52.138;5.424;2023-03-22T01:18:20;100967.13;;;8.76;94.29
71772;BME280;59606;52.138;5.424;2023-03-22T01:20:47;100955.94;;;8.73;94.19
71772;BME280;59606;52.138;5.424;2023-03-22T01:23:13;100958.53;;;8.73;94.53
71772;BME280;59606;52.138;5.424;2023-03-22T01:25:40;100955.94;;;8.73;94.27
71772;BME280;59606;52.138;5.424;2023-03-22T01:28:07;100950.75;;;8.73;93.99
71772;BME280;59606;52.138;5.424;2023-03-22T01:30:33;100942.97;;;8.73;94.19
71772;BME280;59606;52.138;5.424;2023-03-22T01:33:00;100931.66;;;8.74;94.00
71772;BME280;59606;52.138;5.424;2023-03-22T01:35:27;100933.34;;;8.76;94.12
71772;BME280;59606;52.138;5.424;2023-03-22T01:37:54;100935.06;;;8.75;93.80
71772;BME280;59606;52.138;5.424;2023-03-22T01:40:20;100925.56;;;8.76;93.86
71772;BME280;59606;52.138;5.424;2023-03-22T01:42:47;100916.91;;;8.75;93.42
71772;BME280;59606;52.138;5.424;2023-03-22T01:47:47;100914.28;;;8.75;93.62
71772;BME280;59606;52.138;5.424;2023-03-22T01:50:16;100908.25;;;8.74;93.64
71772;BME280;59606;52.138;5.424;2023-03-22T01:52:43;100908.25;;;8.74;93.79
71772;BME280;59606;52.138;5.424;2023-03-22T01:55:10;100908.25;;;8.74;93.27
71772;BME280;59606;52.138;5.424;2023-03-22T01:57:38;100900.47;;;8.74;93.71
71772;BME280;59606;52.138;5.424;2023-03-22T02:00:08;100891.78;;;8.76;93.71
71772;BME280;59606;52.138;5.424;2023-03-22T02:02:38;100889.19;;;8.76;93.58
71772;BME280;59606;52.138;5.424;2023-03-22T02:05:05;100882.28;;;8.74;93.80
71772;BME280;59606;52.138;5.424;2023-03-22T02:07:31;100879.69;;;8.74;94.06
71772;BME280;59606;52.138;5.424;2023-03-22T02:09:58;100871.06;;;8.74;93.29
71772;BME280;59606;52.138;5.424;2023-03-22T02:15:11;100862.53;;;8.72;93.78
71772;BME280;59606;52.138;5.424;2023-03-22T02:18:04;100863.41;;;8.71;93.84
71772;BME280;59606;52.138;5.424;2023-03-22T02:29:15;100846.28;;;8.67;95.05
71772;BME280;59606;52.138;5.424;2023-03-22T02:39:53;100823.69;;;8.69;95.49
71772;BME280;59606;52.138;5.424;2023-03-22T02:45:14;100821.84;;;8.71;95.29
71772;BME280;59606;52.138;5.424;2023-03-22T02:50:36;100820.09;;;8.71;96.46
71772;BME280;59606;52.138;5.424;2023-03-22T02:53:11;100807.06;;;8.73;95.96
71772;BME280;59606;52.138;5.424;2023-03-22T03:00:43;100808.72;;;8.74;96.93
71772;BME280;59606;52.138;5.424;2023-03-22T03:03:11;100806.97;;;8.74;97.12
71772;BME280;59606;52.138;5.424;2023-03-22T03:05:53;100798.28;;;8.76;97.45
71772;BME280;59606;52.138;5.424;2023-03-22T03:08:22;100793.91;;;8.76;98.01
71772;BME280;59606;52.138;5.424;2023-03-22T03:10:50;100792.16;;;8.77;98.09
71772;BME280;59606;52.138;5.424;2023-03-22T03:13:17;100786.88;;;8.78;97.98
71772;BME280;59606;52.138;5.424;2023-03-22T03:15:48;100794.66;;;8.78;98.60
71772;BME280;59606;52.138;5.424;2023-03-22T03:21:07;100794.66;;;8.78;99.26
71772;BME280;59606;52.138;5.424;2023-03-22T03:26:44;100805.97;;;8.77;99.76
71772;BME280;59606;52.138;5.424;2023-03-22T03:29:27;100804.31;;;8.76;99.71
71772;BME280;59606;52.138;5.424;2023-03-22T03:32:21;100804.22;;;8.78;100.00
71772;BME280;59606;52.138;5.424;2023-03-22T03:35:03;100800.78;;;8.77;100.00
71772;BME280;59606;52.138;5.424;2023-03-22T03:37:37;100795.59;;;8.77;100.00
71772;BME280;59606;52.138;5.424;2023-03-22T03:40:13;100799.94;;;8.77;100.00
71772;BME280;59606;52.138;5.424;2023-03-22T03:42:44;100793.00;;;8.77;100.00
71772;BME280;59606;52.138;5.424;2023-03-22T03:45:14;100791.31;;;8.76;100.00
71772;BME280;59606;52.138;5.424;2023-03-22T03:47:43;100787.75;;;8.79;100.00
71772;BME280;59606;52.138;5.424;2023-03-22T03:50:14;100800.56;;;8.82;100.00
71772;BME280;59606;52.138;5.424;2023-03-22T03:52:41;100797.06;;;8.83;100.00
71772;BME280;59606;52.138;5.424;2023-03-22T03:55:08;100787.50;;;8.83;100.00
71772;BME280;59606;52.138;5.424;2023-03-22T03:57:35;100782.22;;;8.85;100.00
71772;BME280;59606;52.138;5.424;2023-03-22T04:00:03;100781.25;;;8.87;100.00
71772;BME280;59606;52.138;5.424;2023-03-22T04:02:30;100781.09;;;8.90;100.00
71772;BME280;59606;52.138;5.424;2023-03-22T04:04:56;100781.94;;;8.91;100.00
71772;BME280;59606;52.138;5.424;2023-03-22T04:07:23;100787.97;;;8.91;100.00
71772;BME280;59606;52.138;5.424;2023-03-22T04:09:49;100797.47;;;8.92;100.00
71772;BME280;59606;52.138;5.424;2023-03-22T04:12:16;100791.41;;;8.92;100.00
71772;BME280;59606;52.138;5.424;2023-03-22T04:14:42;100781.88;;;8.92;100.00
71772;BME280;59606;52.138;5.424;2023-03-22T04:17:10;100784.38;;;8.94;100.00
71772;BME280;59606;52.138;5.424;2023-03-22T04:19:36;100786.84;;;8.97;100.00
71772;BME280;59606;52.138;5.424;2023-03-22T04:22:03;100784.16;;;8.98;100.00
71772;BME280;59606;52.138;5.424;2023-03-22T04:24:29;100784.09;;;9.00;100.00
71772;BME280;59606;52.138;5.424;2023-03-22T04:26:55;100772.78;;;9.01;100.00
71772;BME280;59606;52.138;5.424;2023-03-22T04:29:22;100772.63;;;9.04;100.00
71772;BME280;59606;52.138;5.424;2023-03-22T04:31:49;100769.97;;;9.06;100.00
71772;BME280;59606;52.138;5.424;2023-03-22T04:34:18;100771.63;;;9.07;100.00
71772;BME280;59606;52.138;5.424;2023-03-22T04:36:44;100762.09;;;9.07;100.00
71772;BME280;59606;52.138;5.424;2023-03-22T04:39:11;100752.53;;;9.08;100.00
71772;BME280;59606;52.138;5.424;2023-03-22T04:41:38;100750.75;;;9.08;100.00
71772;BME280;59606;52.138;5.424;2023-03-22T04:44:05;100749.09;;;9.07;100.00
71772;BME280;59606;52.138;5.424;2023-03-22T04:46:33;100751.53;;;9.10;100.00
71772;BME280;59606;52.138;5.424;2023-03-22T04:49:00;100750.59;;;9.11;100.00
71772;BME280;59606;52.138;5.424;2023-03-22T04:51:29;100756.63;;;9.12;100.00
71772;BME280;59606;52.138;5.424;2023-03-22T04:53:57;100757.56;;;9.11;100.00
71772;BME280;59606;52.138;5.424;2023-03-22T04:56:25;100746.34;;;9.10;100.00
71772;BME280;59606;52.138;5.424;2023-03-22T04:58:52;100746.34;;;9.10;100.00
71772;BME280;59606;52.138;5.424;2023-03-22T05:01:18;100753.97;;;9.13;100.00
71772;BME280;59606;52.138;5.424;2023-03-22T05:03:45;100748.78;;;9.13;100.00
71772;BME280;59606;52.138;5.424;2023-03-22T05:06:13;100733.25;;;9.12;100.00
71772;BME280;59606;52.138;5.424;2023-03-22T05:08:40;100735.84;;;9.12;100.00
71772;BME280;59606;52.138;5.424;2023-03-22T05:11:16;100729.97;;;9.08;100.00
71772;BME280;59606;52.138;5.424;2023-03-22T05:13:45;100727.38;;;9.08;100.00
71772;BME280;59606;52.138;5.424;2023-03-22T05:16:12;100735.31;;;9.05;100.00
71772;BME280;59606;52.138;5.424;2023-03-22T05:18:38;100731.97;;;9.03;100.00
71772;BME280;59606;52.138;5.424;2023-03-22T05:21:12;100740.69;;;9.02;100.00
71772;BME280;59606;52.138;5.424;2023-03-22T05:23:42;100737.31;;;9.00;100.00
71772;BME280;59606;52.138;5.424;2023-03-22T05:26:10;100738.25;;;8.99;100.00
71772;BME280;59606;52.138;5.424;2023-03-22T05:28:42;100736.53;;;8.98;100.00
71772;BME280;59606;52.138;5.424;2023-03-22T05:31:09;100728.84;;;8.96;100.00
71772;BME280;59606;52.138;5.424;2023-03-22T05:33:37;100733.25;;;8.94;100.00
71772;BME280;59606;52.138;5.424;2023-03-22T05:36:07;100717.81;;;8.91;100.00
71772;BME280;59606;52.138;5.424;2023-03-22T05:38:34;100716.16;;;8.90;100.00
71772;BME280;59606;52.138;5.424;2023-03-22T05:41:01;100720.41;;;8.91;100.00
71772;BME280;59606;52.138;5.424;2023-03-22T05:43:27;100721.34;;;8.90;100.00
71772;BME280;59606;52.138;5.424;2023-03-22T05:45:54;100720.50;;;8.90;100.00
71772;BME280;59606;52.138;5.424;2023-03-22T05:48:20;100723.09;;;8.90;100.00
71772;BME280;59606;52.138;5.424;2023-03-22T05:50:47;100720.50;;;8.90;100.00
71772;BME280;59606;52.138;5.424;2023-03-22T05:53:13;100713.47;;;8.92;100.00
71772;BME280;59606;52.138;5.424;2023-03-22T05:55:40;100718.66;;;8.92;100.00
71772;BME280;59606;52.138;5.424;2023-03-22T05:58:06;100709.97;;;8.93;100.00
71772;BME280;59606;52.138;5.424;2023-03-22T06:00:33;100698.75;;;8.92;100.00
71772;BME280;59606;52.138;5.424;2023-03-22T06:03:01;100706.53;;;8.92;100.00
71772;BME280;59606;52.138;5.424;2023-03-22T06:05:30;100706.53;;;8.92;100.00
71772;BME280;59606;52.138;5.424;2023-03-22T06:07:57;100705.50;;;8.95;100.00
71772;BME280;59606;52.138;5.424;2023-03-22T06:10:26;100703.78;;;8.95;100.00
71772;BME280;59606;52.138;5.424;2023-03-22T06:12:54;100707.06;;;8.99;100.00
71772;BME280;59606;52.138;5.424;2023-03-22T06:15:20;100706.13;;;9.00;100.00
71772;BME280;59606;52.138;5.424;2023-03-22T06:17:47;100709.50;;;9.02;100.00
71772;BME280;59606;52.138;5.424;2023-03-22T06:20:14;100710.25;;;9.04;100.00
71772;BME280;59606;52.138;5.424;2023-03-22T06:22:45;100708.50;;;9.05;100.00
71772;BME280;59606;52.138;5.424;2023-03-22T06:25:12;100708.50;;;9.05;99.96
71772;BME280;59606;52.138;5.424;2023-03-22T06:27:40;100707.59;;;9.06;100.00
71772;BME280;59606;52.138;5.424;2023-03-22T06:30:07;100708.28;;;9.09;99.93
71772;BME280;59606;52.138;5.424;2023-03-22T06:32:33;100710.63;;;9.14;99.87
71772;BME280;59606;52.138;5.424;2023-03-22T06:35:00;100711.16;;;9.20;100.00
71772;BME280;59606;52.138;5.424;2023-03-22T06:37:26;100703.75;;;9.30;99.29
71772;BME280;59606;52.138;5.424;2023-03-22T06:39:53;100703.16;;;9.41;99.75
71772;BME280;59606;52.138;5.424;2023-03-22T06:42:19;100706.13;;;9.51;98.80
71772;BME280;59606;52.138;5.424;2023-03-22T06:44:46;100699.53;;;9.61;97.83
71772;BME280;59606;52.138;5.424;2023-03-22T06:47:12;100713.22;;;9.64;98.13
71772;BME280;59606;52.138;5.424;2023-03-22T06:49:39;100705.25;;;9.67;98.02
71772;BME280;59606;52.138;5.424;2023-03-22T06:52:06;100712.88;;;9.71;96.92
71772;BME280;59606;52.138;5.424;2023-03-22T06:54:33;100710.03;;;9.75;96.98
71772;BME280;59606;52.138;5.424;2023-03-22T06:57:00;100708.97;;;9.79;96.38
71772;BME280;59606;52.138;5.424;2023-03-22T06:59:26;100711.31;;;9.84;96.11
71772;BME280;59606;52.138;5.424;2023-03-22T07:01:53;100719.63;;;9.90;96.15
71772;BME280;59606;52.138;5.424;2023-03-22T07:04:19;100713.31;;;9.95;95.72
71772;BME280;59606;52.138;5.424;2023-03-22T07:06:49;100704.53;;;9.97;94.86
71772;BME280;59606;52.138;5.424;2023-03-22T07:09:16;100719.19;;;9.98;94.68
71772;BME280;59606;52.138;5.424;2023-03-22T07:11:42;100701.91;;;9.97;94.78
71772;BME280;59606;52.138;5.424;2023-03-22T07:14:09;100704.53;;;9.97;93.97
71772;BME280;59606;52.138;5.424;2023-03-22T07:16:35;100706.28;;;9.97;94.23
71772;BME280;59606;52.138;5.424;2023-03-22T07:19:02;100716.69;;;9.97;93.79
71772;BME280;59606;52.138;5.424;2023-03-22T07:21:28;100714.09;;;9.97;93.68
71772;BME280;59606;52.138;5.424;2023-03-22T07:23:55;100716.69;;;9.97;93.88
71772;BME280;59606;52.138;5.424;2023-03-22T07:26:22;100719.31;;;9.97;93.84
71772;BME280;59606;52.138;5.424;2023-03-22T07:28:49;100709.63;;;9.99;93.29
71772;BME280;59606;52.138;5.424;2023-03-22T07:31:15;100703.34;;;10.03;92.92
71772;BME280;59606;52.138;5.424;2023-03-22T07:33:42;100709.06;;;10.09;92.62
71772;BME280;59606;52.138;5.424;2023-03-22T07:36:09;100714.84;;;10.14;92.44
71772;BME280;59606;52.138;5.424;2023-03-22T07:38:36;100708.53;;;10.19;92.05
71772;BME280;59606;52.138;5.424;2023-03-22T07:41:03;100704.00;;;10.22;91.75
71772;BME280;59606;52.138;5.424;2023-03-22T07:43:30;100710.81;;;10.25;91.47
71772;BME280;59606;52.138;5.424;2023-03-22T07:46:04;100698.41;;;10.30;91.93
71772;BME280;59606;52.138;5.424;2023-03-22T07:48:31;100704.28;;;10.33;90.69
71772;BME280;59606;52.138;5.424;2023-03-22T07:51:06;100708.56;;;10.34;90.52
71772;BME280;59606;52.138;5.424;2023-03-22T07:53:33;100706.72;;;10.36;90.17
71772;BME280;59606;52.138;5.424;2023-03-22T07:56:00;100701.53;;;10.36;90.26
71772;BME280;59606;52.138;5.424;2023-03-22T07:58:26;100702.25;;;10.38;89.85
71772;BME280;59606;52.138;5.424;2023-03-22T08:00:52;100704.69;;;10.42;90.09
71772;BME280;59606;52.138;5.424;2023-03-22T08:03:19;100709.56;;;10.48;89.89
71772;BME280;59606;52.138;5.424;2023-03-22T08:05:47;100710.06;;;10.54;89.21
71772;BME280;59606;52.138;5.424;2023-03-22T08:08:14;100708.69;;;10.63;89.64
71772;BME280;59606;52.138;5.424;2023-03-22T08:10:40;100702.38;;;10.67;88.53
71772;BME280;59606;52.138;5.424;2023-03-22T08:13:07;100693.44;;;10.71;88.07
71772;BME280;59606;52.138;5.424;2023-03-22T08:15:33;100697.47;;;10.77;87.92
71772;BME280;59606;52.138;5.424;2023-03-22T08:18:02;100698.97;;;10.81;88.07
71772;BME280;59606;52.138;5.424;2023-03-22T08:20:29;100692.00;;;10.81;87.30
71772;BME280;59606;52.138;5.424;2023-03-22T08:22:55;100694.59;;;10.81;87.47
71772;BME280;59606;52.138;5.424;2023-03-22T08:25:22;100702.53;;;10.80;86.84
71772;BME280;59606;52.138;5.424;2023-03-22T08:27:49;100694.78;;;10.78;86.41
71772;BME280;59606;52.138;5.424;2023-03-22T08:30:18;100694.59;;;10.81;86.64
71772;BME280;59606;52.138;5.424;2023-03-22T08:32:47;100697.19;;;10.81;86.75
71772;BME280;59606;52.138;5.424;2023-03-22T08:35:14;100705.59;;;10.87;86.01
71772;BME280;59606;52.138;5.424;2023-03-22T08:37:41;100693.22;;;10.90;86.02
71772;BME280;59606;52.138;5.424;2023-03-22T08:40:08;100700.94;;;10.92;86.24
71772;BME280;59606;52.138;5.424;2023-03-22T08:42:35;100695.28;;;10.99;86.21
71772;BME280;59606;52.138;5.424;2023-03-22T08:45:02;100695.75;;;11.06;86.38
71772;BME280;59606;52.138;5.424;2023-03-22T08:47:29;100692.72;;;11.14;85.73
71772;BME280;59606;52.138;5.424;2023-03-22T08:49:56;100697.94;;;11.14;85.23
71772;BME280;59606;52.138;5.424;2023-03-22T08:52:23;100676.69;;;11.20;85.25
71772;BME280;59606;52.138;5.424;2023-03-22T08:54:49;100693.66;;;11.27;85.30
71772;BME280;59606;52.138;5.424;2023-03-22T08:57:20;100686.38;;;11.32;84.19
71772;BME280;59606;52.138;5.424;2023-03-22T08:59:49;100687.31;;;11.31;84.65
71772;BME280;59606;52.138;5.424;2023-03-22T09:02:17;100686.66;;;11.27;83.99
71772;BME280;59606;52.138;5.424;2023-03-22T09:04:44;100689.47;;;11.24;83.75
71772;BME280;59606;52.138;5.424;2023-03-22T09:07:10;100695.03;;;11.18;83.73
71772;BME280;59606;52.138;5.424;2023-03-22T09:09:37;100687.50;;;11.14;83.13
71772;BME280;59606;52.138;5.424;2023-03-22T09:12:04;100689.25;;;11.13;83.31
71772;BME280;59606;52.138;5.424;2023-03-22T09:14:30;100697.94;;;11.14;82.72
71772;BME280;59606;52.138;5.424;2023-03-22T09:16:57;100697.81;;;11.15;83.17
71772;BME280;59606;52.138;5.424;2023-03-22T09:19:23;100688.06;;;11.19;83.58
71772;BME280;59606;52.138;5.424;2023-03-22T09:21:51;100698.13;;;11.25;83.37
71772;BME280;59606;52.138;5.424;2023-03-22T09:24:17;100691.06;;;11.27;83.27
71772;BME280;59606;52.138;5.424;2023-03-22T09:26:44;100702.31;;;11.27;83.52
71772;BME280;59606;52.138;5.424;2023-03-22T09:29:12;100697.94;;;11.28;83.94
71772;BME280;59606;52.138;5.424;2023-03-22T09:31:40;100694.69;;;11.24;83.97
71772;BME280;59606;52.138;5.424;2023-03-22T09:34:07;100708.72;;;11.22;84.77
71772;BME280;59606;52.138;5.424;2023-03-22T09:36:33;100703.88;;;11.16;84.86
71772;BME280;59606;52.138;5.424;2023-03-22T09:39:00;100699.78;;;11.12;85.37
71772;BME280;59606;52.138;5.424;2023-03-22T09:41:54;100704.41;;;11.06;86.80
71772;BME280;59606;52.138;5.424;2023-03-22T09:44:49;100694.91;;;11.05;87.04
71772;BME280;59606;52.138;5.424;2023-03-22T09:47:18;100710.09;;;10.99;87.35
71772;BME280;59606;52.138;5.424;2023-03-22T09:49:49;100692.19;;;10.93;88.32
71772;BME280;59606;52.138;5.424;2023-03-22T09:52:21;100698.44;;;10.90;89.38
71772;BME280;59606;52.138;5.424;2023-03-22T09:54:47;100700.94;;;10.92;90.03
71772;BME280;59606;52.138;5.424;2023-03-22T09:57:32;100691.63;;;10.88;90.37
71772;BME280;59606;52.138;5.424;2023-03-22T10:02:59;100688.78;;;10.76;91.80
71772;BME280;59606;52.138;5.424;2023-03-22T10:08:18;100687.22;;;10.74;92.52
71772;BME280;59606;52.138;5.424;2023-03-22T10:10:48;100696.06;;;10.71;92.68
71772;BME280;59606;52.138;5.424;2023-03-22T10:13:39;100701.72;;;10.64;93.82
71772;BME280;59606;52.138;5.424;2023-03-22T10:16:15;100693.25;;;10.60;93.34
71772;BME280;59606;52.138;5.424;2023-03-22T10:18:50;100685.59;;;10.57;94.19
71772;BME280;59606;52.138;5.424;2023-03-22T10:21:18;100693.41;;;10.57;94.49
71772;BME280;59606;52.138;5.424;2023-03-22T10:24:11;100704.00;;;10.54;94.65
71772;BME280;59606;52.138;5.424;2023-03-22T10:26:45;100693.41;;;10.57;95.04
71772;BME280;59606;52.138;5.424;2023-03-22T10:29:41;100690.16;;;10.53;95.21
71772;BME280;59606;52.138;5.424;2023-03-22T10:32:15;100689.28;;;10.53;94.90
71772;BME280;59606;52.138;5.424;2023-03-22T10:34:43;100697.09;;;10.53;94.92
71772;BME280;59606;52.138;5.424;2023-03-22T10:37:16;100695.19;;;10.56;95.54
71772;BME280;59606;52.138;5.424;2023-03-22T10:39:46;100695.09;;;10.58;95.56
71772;BME280;59606;52.138;5.424;2023-03-22T10:42:24;100697.69;;;10.58;95.44
71772;BME280;59606;52.138;5.424;2023-03-22T10:45:04;100693.47;;;10.55;95.80
71772;BME280;59606;52.138;5.424;2023-03-22T10:47:41;100703.84;;;10.57;95.89
71772;BME280;59606;52.138;5.424;2023-03-22T10:50:18;100703.72;;;10.58;96.23
71772;BME280;59606;52.138;5.424;2023-03-22T10:53:05;100698.53;;;10.58;95.79
71772;BME280;59606;52.138;5.424;2023-03-22T10:55:38;100687.44;;;10.55;96.09
71772;BME280;59606;52.138;5.424;2023-03-22T10:58:14;100698.78;;;10.54;96.30
71772;BME280;59606;52.138;5.424;2023-03-22T11:00:45;100695.09;;;10.58;96.65
71772;BME280;59606;52.138;5.424;2023-03-22T11:03:26;100688.88;;;10.60;96.89
71772;BME280;59606;52.138;5.424;2023-03-22T11:05:58;100676.75;;;10.59;96.92
71772;BME280;59606;52.138;5.424;2023-03-22T11:08:25;100678.34;;;10.62;96.74
71772;BME280;59606;52.138;5.424;2023-03-22T11:10:52;100671.13;;;10.67;96.87
71772;BME280;59606;52.138;5.424;2023-03-22T11:13:21;100674.94;;;10.76;97.37
71772;BME280;59606;52.138;5.424;2023-03-22T11:15:58;100673.56;;;10.84;97.54
71772;BME280;59606;52.138;5.424;2023-03-22T11:18:29;100670.44;;;10.94;97.38
71772;BME280;59606;52.138;5.424;2023-03-22T11:21:05;100674.72;;;10.95;96.45
71772;BME280;59606;52.138;5.424;2023-03-22T11:23:33;100674.13;;;10.90;95.91
71772;BME280;59606;52.138;5.424;2023-03-22T11:26:12;100679.34;;;10.90;95.66
71772;BME280;59606;52.138;5.424;2023-03-22T11:28:48;100669.59;;;10.93;95.58
71772;BME280;59606;52.138;5.424;2023-03-22T11:31:18;100674.53;;;10.98;95.66
71772;BME280;59606;52.138;5.424;2023-03-22T11:33:57;100671.75;;;11.01;95.35
71772;BME280;59606;52.138;5.424;2023-03-22T11:36:28;100668.38;;;10.99;94.84
71772;BME280;59606;52.138;5.424;2023-03-22T11:39:05;100665.88;;;10.97;95.00
71772;BME280;59606;52.138;5.424;2023-03-22T11:41:36;100669.97;;;11.01;94.99
71772;BME280;59606;52.138;5.424;2023-03-22T11:44:07;100686.25;;;11.05;94.69
71772;BME280;59606;52.138;5.424;2023-03-22T11:46:36;100673.88;;;11.08;94.37
71772;BME280;59606;52.138;5.424;2023-03-22T11:49:08;100676.31;;;11.12;94.47
71772;BME280;59606;52.138;5.424;2023-03-22T11:51:40;100676.31;;;11.12;94.23
71772;BME280;59606;52.138;5.424;2023-03-22T11:54:14;100678.75;;;11.15;94.34
71772;BME280;59606;52.138;5.424;2023-03-22T11:56:47;100686.75;;;11.12;93.83
71772;BME280;59606;52.138;5.424;2023-03-22T11:59:21;100701.63;;;11.09;93.31
71772;BME280;59606;52.138;5.424;2023-03-22T12:01:58;100693.97;;;11.06;93.59
71772;BME280;59606;52.138;5.424;2023-03-22T12:04:28;100702.84;;;11.04;93.52
71772;BME280;59606;52.138;5.424;2023-03-22T12:06:59;100703.84;;;11.01;93.22
71772;BME280;59606;52.138;5.424;2023-03-22T12:09:45;100704.78;;;11.00;93.19
71772;BME280;59606;52.138;5.424;2023-03-22T12:12:19;100694.25;;;11.02;93.25
71772;BME280;59606;52.138;5.424;2023-03-22T12:14:53;100689.88;;;11.02;93.47
71772;BME280;59606;52.138;5.424;2023-03-22T12:17:29;100699.31;;;11.05;93.14
71772;BME280;59606;52.138;5.424;2023-03-22T12:22:53;100686.91;;;11.08;92.84
71772;BME280;59606;52.138;5.424;2023-03-22T12:25:24;100694.75;;;11.08;92.77
71772;BME280;59606;52.138;5.424;2023-03-22T12:27:54;100690.38;;;11.09;92.83
71772;BME280;59606;52.138;5.424;2023-03-22T12:30:24;100687.69;;;11.11;92.55
71772;BME280;59606;52.138;5.424;2023-03-22T12:33:03;100690.19;;;11.12;92.45
71772;BME280;59606;52.138;5.424;2023-03-22T12:35:34;100698.00;;;11.12;92.40
71772;BME280;59606;52.138;5.424;2023-03-22T12:38:29;100694.66;;;11.10;91.83
71772;BME280;59606;52.138;5.424;2023-03-22T12:41:01;100689.44;;;11.10;91.85
71772;BME280;59606;52.138;5.424;2023-03-22T12:44:00;100685.06;;;11.11;91.94
71772;BME280;59606;52.138;5.424;2023-03-22T12:46:43;100681.63;;;11.10;92.00
71772;BME280;59606;52.138;5.424;2023-03-22T12:49:24;100680.59;;;11.13;91.83
71772;BME280;59606;52.138;5.424;2023-03-22T12:52:01;100683.13;;;11.14;91.92
71772;BME280;59606;52.138;5.424;2023-03-22T12:54:29;100669.31;;;11.12;91.65
71772;BME280;59606;52.138;5.424;2023-03-22T12:56:56;100676.13;;;11.15;92.10
71772;BME280;59606;52.138;5.424;2023-03-22T12:59:26;100675.19;;;11.16;91.88
71772;BME280;59606;52.138;5.424;2023-03-22T13:02:11;100674.19;;;11.18;91.51
71772;BME280;59606;52.138;5.424;2023-03-22T13:07:14;100675.59;;;11.24;91.92
71772;BME280;59606;52.138;5.424;2023-03-22T13:09:45;100680.81;;;11.24;91.53
71772;BME280;59606;52.138;5.424;2023-03-22T13:28:03;100681.06;;;11.19;92.29
71772;BME280;59606;52.138;5.424;2023-03-22T13:30:50;100676.69;;;11.20;92.29
71772;BME280;59606;52.138;5.424;2023-03-22T13:33:25;100685.38;;;11.20;91.98
71772;BME280;59606;52.138;5.424;2023-03-22T13:35:57;100690.47;;;11.22;92.16
71772;BME280;59606;52.138;5.424;2023-03-22T13:38:26;100674.75;;;11.23;91.73
71772;BME280;59606;52.138;5.424;2023-03-22T13:51:20;100681.16;;;11.32;92.85
71772;BME280;59606;52.138;5.424;2023-03-22T13:59:00;100665.69;;;11.29;93.56
71772;BME280;59606;52.138;5.424;2023-03-22T14:01:32;100673.44;;;11.30;94.08
71772;BME280;59606;52.138;5.424;2023-03-22T14:04:05;100675.94;;;11.32;94.16
71772;BME280;59606;52.138;5.424;2023-03-22T14:06:36;100673.25;;;11.33;94.06
71772;BME280;59606;52.138;5.424;2023-03-22T14:09:20;100664.56;;;11.33;94.22
71772;BME280;59606;52.138;5.424;2023-03-22T14:12:14;100665.22;;;11.37;94.88
71772;BME280;59606;52.138;5.424;2023-03-22T14:14:46;100663.56;;;11.36;94.89
71772;BME280;59606;52.138;5.424;2023-03-22T14:17:36;100651.28;;;11.38;94.77
71772;BME280;59606;52.138;5.424;2023-03-22T14:20:05;100653.78;;;11.39;94.78
71772;BME280;59606;52.138;5.424;2023-03-22T14:22:38;100651.94;;;11.41;94.78
71772;BME280;59606;52.138;5.424;2023-03-22T14:25:06;100646.59;;;11.43;94.93
71772;BME280;59606;52.138;5.424;2023-03-22T14:27:35;100639.41;;;11.46;94.84
71772;BME280;59606;52.138;5.424;2023-03-22T14:30:01;100634.00;;;11.49;95.18